Time;durP1;ratioP1;P1;durP2;ratioP2;P2;SDS_P1;SDS_P2;PMS_P1;PMS_P2;Temp;Humidity;BMP_temperature;BMP_pressure;BME280_temperature;BME280_humidity;BME280_pressure;Samples;Min_cycle;Max_cycle;Signal;HPM_P1;HPM_P2
2023/06/29 00:01:55;;;;;;;;;;;;;;;30.05;31.83;98060.03;5054774;28;20335;-87
2023/06/29 00:04:25;;;;;;;;;;;;;;;29.60;32.68;98062.88;5051438;28;19925;-91
2023/06/29 00:06:54;;;;;;;;;;;;;;;28.86;33.89;98061.22;5051677;28;19920;-88
2023/06/29 00:09:21;;;;;;;;;;;;;;;28.46;35.75;98069.69;5046911;28;19928;-88
2023/06/29 00:11:47;;;;;;;;;;;;;;;28.75;34.56;98070.13;5051251;28;19971;-89
2023/06/29 00:14:13;;;;;;;;;;;;;;;28.78;34.41;98068.41;5053737;28;19925;-90
2023/06/29 00:16:39;;;;;;;;;;;;;;;28.87;34.71;98071.25;5054503;28;19921;-88
2023/06/29 00:19:07;;;;;;;;;;;;;;;28.73;34.32;98072.63;5046156;28;19921;-88
2023/06/29 00:21:33;;;;;;;;;;;;;;;28.25;35.56;98066.91;5045070;28;19928;-88
2023/06/29 00:23:59;;;;;;;;;;;;;;;28.65;34.61;98064.91;5036760;28;19933;-88
2023/06/29 00:26:28;;;;;;;;;;;;;;;29.23;33.76;98071.38;5046917;28;20004;-88
2023/06/29 00:28:55;;;;;;;;;;;;;;;29.18;33.99;98065.53;5048825;28;19921;-88
2023/06/29 00:31:24;;;;;;;;;;;;;;;28.97;34.47;98058.72;5054268;28;20438;-88
2023/06/29 00:33:50;;;;;;;;;;;;;;;29.35;33.32;98069.66;5053540;28;19928;-88
2023/06/29 00:36:17;;;;;;;;;;;;;;;29.63;33.06;98059.13;5053817;28;19947;-88
2023/06/29 00:38:43;;;;;;;;;;;;;;;29.45;33.37;98054.25;5037474;28;20357;-88
2023/06/29 00:41:09;;;;;;;;;;;;;;;29.17;34.09;98069.59;5034194;28;19960;-87
2023/06/29 00:43:35;;;;;;;;;;;;;;;29.35;33.35;98066.81;5032947;28;20435;-90
2023/06/29 00:46:07;;;;;;;;;;;;;;;29.55;33.33;98066.34;5047040;28;20381;-88
2023/06/29 00:48:36;;;;;;;;;;;;;;;29.81;32.82;98071.25;5053696;28;19924;-87
2023/06/29 00:51:03;;;;;;;;;;;;;;;29.91;32.99;98069.19;5053765;28;19921;-87
2023/06/29 00:53:29;;;;;;;;;;;;;;;30.03;32.50;98062.56;5053859;28;19939;-87
2023/06/29 00:55:55;;;;;;;;;;;;;;;30.28;31.77;98064.22;5052804;28;19952;-87
2023/06/29 00:58:21;;;;;;;;;;;;;;;29.75;33.07;98061.78;5052899;28;19920;-88
2023/06/29 01:00:47;;;;;;;;;;;;;;;29.89;32.75;98047.03;5052230;28;19940;-87
2023/06/29 01:03:13;;;;;;;;;;;;;;;30.02;32.21;98046.81;5053456;28;19917;-87
2023/06/29 01:05:41;;;;;;;;;;;;;;;30.29;31.96;98041.09;5068996;28;19920;-86
2023/06/29 01:08:15;;;;;;;;;;;;;;;30.19;32.08;98048.03;5053321;28;19920;-87
2023/06/29 01:10:43;;;;;;;;;;;;;;;30.16;32.36;98046.16;5050059;28;19921;-86
2023/06/29 01:13:10;;;;;;;;;;;;;;;30.24;32.02;98041.75;5049795;28;19921;-87
2023/06/29 01:15:38;;;;;;;;;;;;;;;30.24;31.89;98033.25;5053457;28;19925;-86
2023/06/29 01:18:04;;;;;;;;;;;;;;;29.97;32.55;98039.75;5043320;28;19921;-87
2023/06/29 01:20:33;;;;;;;;;;;;;;;29.81;32.59;98042.13;5053348;28;19920;-86
2023/06/29 01:23:05;;;;;;;;;;;;;;;29.83;32.71;98040.41;5037149;28;19917;-86
2023/06/29 01:25:32;;;;;;;;;;;;;;;30.12;32.55;98045.53;5052870;28;20347;-86
2023/06/29 01:27:58;;;;;;;;;;;;;;;30.08;32.37;98045.69;5047768;28;19979;-87
2023/06/29 01:30:26;;;;;;;;;;;;;;;29.94;32.71;98040.69;5052876;28;19983;-86
2023/06/29 01:32:52;;;;;;;;;;;;;;;30.00;32.60;98038.03;5052201;28;19956;-86
2023/06/29 01:35:18;;;;;;;;;;;;;;;29.87;32.75;98046.69;5052453;28;19979;-86
2023/06/29 01:37:47;;;;;;;;;;;;;;;29.71;33.02;98040.56;5051441;28;19983;-86
2023/06/29 01:40:16;;;;;;;;;;;;;;;29.52;33.56;98036.19;5048102;28;20019;-86
2023/06/29 01:42:43;;;;;;;;;;;;;;;29.63;33.00;98040.09;5044068;28;20019;-87
2023/06/29 01:45:10;;;;;;;;;;;;;;;29.87;32.72;98041.03;5050215;28;19924;-86
2023/06/29 01:47:36;;;;;;;;;;;;;;;29.93;32.69;98047.63;5043870;28;19921;-86
2023/06/29 01:50:03;;;;;;;;;;;;;;;30.00;32.88;98041.66;5052942;28;20442;-86
2023/06/29 01:52:29;;;;;;;;;;;;;;;30.23;32.14;98051.47;5050207;28;19921;-87
2023/06/29 01:54:55;;;;;;;;;;;;;;;30.37;32.09;98041.53;5045119;28;19921;-88
2023/06/29 01:57:21;;;;;;;;;;;;;;;30.32;31.84;98042.94;5049113;28;20007;-87
2023/06/29 01:59:47;;;;;;;;;;;;;;;30.36;32.01;98046.44;5049035;28;19952;-86
2023/06/29 02:02:13;;;;;;;;;;;;;;;30.52;32.00;98042.44;5047268;28;20399;-86
2023/06/29 02:04:39;;;;;;;;;;;;;;;30.67;31.39;98041.25;5035738;28;19927;-87
2023/06/29 02:07:05;;;;;;;;;;;;;;;30.66;31.19;98041.75;5048001;28;20440;-86
2023/06/29 02:09:31;;;;;;;;;;;;;;;30.72;31.69;98048.31;5050862;28;20456;-86
2023/06/29 02:11:58;;;;;;;;;;;;;;;30.78;31.79;98043.56;5037226;28;20400;-86
2023/06/29 02:14:24;;;;;;;;;;;;;;;31.03;31.03;98042.34;5047129;28;19925;-85
2023/06/29 02:16:50;;;;;;;;;;;;;;;31.00;30.77;98046.94;5043238;28;19986;-85
2023/06/29 02:19:17;;;;;;;;;;;;;;;31.02;30.79;98046.44;5038467;28;19951;-85
2023/06/29 02:21:43;;;;;;;;;;;;;;;30.99;30.67;98048.22;5049063;28;19995;-85
2023/06/29 02:24:09;;;;;;;;;;;;;;;30.94;30.61;98048.06;5052152;28;19960;-86
2023/06/29 02:26:35;;;;;;;;;;;;;;;30.97;30.64;98047.88;5038156;28;20000;-86
2023/06/29 02:29:01;;;;;;;;;;;;;;;30.99;30.23;98056.72;5050764;28;20018;-85
2023/06/29 02:31:27;;;;;;;;;;;;;;;31.01;30.07;98057.03;5043497;28;20000;-85
2023/06/29 02:33:53;;;;;;;;;;;;;;;30.81;30.85;98056.78;5050452;28;19922;-85
2023/06/29 02:36:21;;;;;;;;;;;;;;;30.72;30.79;98062.50;5042495;28;20339;-85
2023/06/29 02:38:47;;;;;;;;;;;;;;;30.52;31.32;98065.91;5036165;28;20563;-85
2023/06/29 02:41:13;;;;;;;;;;;;;;;30.44;31.67;98073.16;5036190;28;20372;-86
2023/06/29 02:43:41;;;;;;;;;;;;;;;30.55;31.10;98078.34;5038753;28;20256;-86
2023/06/29 02:46:07;;;;;;;;;;;;;;;30.73;31.15;98069.75;5053982;28;19948;-86
2023/06/29 02:48:33;;;;;;;;;;;;;;;30.78;30.86;98072.69;5044342;28;19924;-86
2023/06/29 02:50:59;;;;;;;;;;;;;;;30.80;31.04;98077.09;5056018;28;19917;-86
2023/06/29 02:53:25;;;;;;;;;;;;;;;30.80;30.93;98077.09;5055639;28;19913;-86
2023/06/29 02:55:51;;;;;;;;;;;;;;;30.68;31.35;98085.34;5055422;28;19943;-86
2023/06/29 02:58:17;;;;;;;;;;;;;;;30.69;31.27;98083.31;5055482;28;19928;-86
2023/06/29 03:00:46;;;;;;;;;;;;;;;30.57;31.37;98079.41;5056090;28;19917;-86
2023/06/29 03:03:12;;;;;;;;;;;;;;;30.53;31.63;98078.00;5055870;28;19924;-86
2023/06/29 03:05:38;;;;;;;;;;;;;;;30.65;31.40;98079.84;5055144;28;19917;-86
2023/06/29 03:08:04;;;;;;;;;;;;;;;30.35;31.67;98078.06;5053603;28;20024;-87
2023/06/29 03:10:30;;;;;;;;;;;;;;;30.15;31.99;98078.59;5047447;28;19932;-86
2023/06/29 03:12:56;;;;;;;;;;;;;;;30.26;32.08;98081.69;5041133;28;19925;-86
2023/06/29 03:15:22;;;;;;;;;;;;;;;30.21;32.21;98082.34;5049989;28;19928;-87
2023/06/29 03:17:48;;;;;;;;;;;;;;;30.25;32.00;98085.78;5044084;28;19928;-86
2023/06/29 03:20:14;;;;;;;;;;;;;;;30.24;32.45;98089.88;5038490;28;19917;-86
2023/06/29 03:22:40;;;;;;;;;;;;;;;30.46;32.14;98104.63;5051491;28;19928;-86
2023/06/29 03:25:08;;;;;;;;;;;;;;;30.42;32.33;98101.19;5055111;28;20284;-86
2023/06/29 03:27:34;;;;;;;;;;;;;;;30.66;31.67;98101.28;5044701;28;19917;-86
2023/06/29 03:30:00;;;;;;;;;;;;;;;30.69;31.63;98094.66;5051982;28;19927;-86
2023/06/29 03:32:26;;;;;;;;;;;;;;;30.75;31.39;98093.50;5055049;28;19962;-86
2023/06/29 03:34:52;;;;;;;;;;;;;;;30.54;31.32;98090.91;5034970;28;19928;-87
2023/06/29 03:37:18;;;;;;;;;;;;;;;30.55;31.78;98098.16;5035390;28;19928;-86
2023/06/29 03:39:44;;;;;;;;;;;;;;;30.64;31.86;98098.91;5050916;28;20281;-86
2023/06/29 03:42:10;;;;;;;;;;;;;;;30.89;31.32;98108.28;5049567;28;19962;-86
2023/06/29 03:44:36;;;;;;;;;;;;;;;31.01;31.59;98101.59;5054348;28;19921;-86
2023/06/29 03:47:02;;;;;;;;;;;;;;;31.21;31.19;98107.47;5049033;28;19929;-86
2023/06/29 03:49:28;;;;;;;;;;;;;;;31.33;31.16;98107.22;5042802;28;19983;-86
2023/06/29 03:51:54;;;;;;;;;;;;;;;31.42;31.05;98112.88;5051521;28;19925;-86
2023/06/29 03:54:20;;;;;;;;;;;;;;;31.38;31.00;98108.63;5051451;28;20330;-86
2023/06/29 03:56:47;;;;;;;;;;;;;;;31.19;31.18;98107.16;5044181;28;19921;-86
2023/06/29 03:59:13;;;;;;;;;;;;;;;31.30;31.24;98110.22;5051281;28;20295;-86
2023/06/29 04:01:39;;;;;;;;;;;;;;;31.29;31.16;98117.19;5049317;28;20008;-86
2023/06/29 04:04:05;;;;;;;;;;;;;;;31.35;31.11;98112.41;5045324;28;19921;-86
2023/06/29 04:06:31;;;;;;;;;;;;;;;31.41;31.16;98107.66;5046861;28;19921;-86
2023/06/29 04:08:57;;;;;;;;;;;;;;;31.42;30.47;98118.53;5050377;28;20640;-86
2023/06/29 04:11:25;;;;;;;;;;;;;;;31.14;31.28;98108.59;5048379;28;19935;-85
2023/06/29 04:13:51;;;;;;;;;;;;;;;31.08;31.47;98115.44;5050590;28;19966;-85
2023/06/29 04:16:17;;;;;;;;;;;;;;;31.08;31.38;98115.44;5047473;28;19933;-85
2023/06/29 04:18:43;;;;;;;;;;;;;;;31.20;30.75;98117.25;5050699;28;20327;-84
2023/06/29 04:21:09;;;;;;;;;;;;;;;31.05;30.67;98114.34;5053613;28;19921;-85
2023/06/29 04:23:36;;;;;;;;;;;;;;;30.87;31.42;98120.09;5050720;28;19925;-86
2023/06/29 04:26:02;;;;;;;;;;;;;;;30.53;32.31;98123.34;5046130;28;19928;-85
2023/06/29 04:28:29;;;;;;;;;;;;;;;30.77;31.67;98130.66;5047146;28;19921;-86
2023/06/29 04:30:55;;;;;;;;;;;;;;;30.98;31.61;98130.91;5041874;28;19924;-85
2023/06/29 04:33:21;;;;;;;;;;;;;;;30.85;31.61;98136.00;5053353;28;19966;-85
2023/06/29 04:35:49;;;;;;;;;;;;;;;30.60;31.67;98137.19;5047008;28;20373;-87
2023/06/29 04:38:15;;;;;;;;;;;;;;;30.38;32.62;98139.47;5045764;28;19929;-85
2023/06/29 04:40:42;;;;;;;;;;;;;;;30.35;32.61;98137.56;5044019;28;19936;-85
2023/06/29 04:43:08;;;;;;;;;;;;;;;30.46;32.82;98137.84;5045856;28;19923;-85
2023/06/29 04:45:34;;;;;;;;;;;;;;;30.84;32.16;98138.03;5039411;28;19928;-86
2023/06/29 04:48:01;;;;;;;;;;;;;;;30.89;32.38;98133.78;5034185;28;19999;-85
2023/06/29 04:50:31;;;;;;;;;;;;;;;30.83;33.30;98132.84;5044871;28;19962;-86
2023/06/29 04:53:08;;;;;;;;;;;;;;;31.00;31.99;98148.22;5045733;28;19920;-87
2023/06/29 04:55:36;;;;;;;;;;;;;;;31.12;31.89;98133.84;5046056;28;20299;-85
2023/06/29 04:58:03;;;;;;;;;;;;;;;31.18;32.16;98133.97;5032342;28;19932;-85
2023/06/29 05:00:30;;;;;;;;;;;;;;;31.18;31.84;98145.31;5049039;28;19916;-84
2023/06/29 05:02:56;;;;;;;;;;;;;;;31.19;31.91;98138.38;5042422;28;19924;-84
2023/06/29 05:05:22;;;;;;;;;;;;;;;31.22;31.85;98137.41;5051424;28;19921;-85
2023/06/29 05:07:48;;;;;;;;;;;;;;;31.44;31.64;98145.66;5050733;28;19963;-85
2023/06/29 05:10:14;;;;;;;;;;;;;;;31.63;31.75;98156.41;5046056;28;20406;-85
2023/06/29 05:12:40;;;;;;;;;;;;;;;31.50;31.78;98147.34;5040932;28;19928;-85
2023/06/29 05:15:07;;;;;;;;;;;;;;;31.55;32.00;98148.75;5047920;28;20003;-85
2023/06/29 05:17:33;;;;;;;;;;;;;;;31.36;31.45;98148.03;5044674;28;19936;-85
2023/06/29 05:19:59;;;;;;;;;;;;;;;31.13;33.64;98145.97;5043249;28;19925;-86
2023/06/29 05:22:25;;;;;;;;;;;;;;;31.18;32.22;98133.97;5053050;28;19943;-85
2023/06/29 05:24:51;;;;;;;;;;;;;;;31.23;32.14;98139.75;5048353;28;19944;-85
2023/06/29 05:27:17;;;;;;;;;;;;;;;31.20;32.83;98146.38;5043785;28;19929;-85
2023/06/29 05:29:43;;;;;;;;;;;;;;;31.31;32.25;98143.03;5047238;28;19924;-85
2023/06/29 05:32:09;;;;;;;;;;;;;;;31.42;32.01;98146.94;5048440;28;19920;-85
2023/06/29 05:34:37;;;;;;;;;;;;;;;31.45;32.18;98150.06;5045563;28;19935;-86
2023/06/29 05:37:03;;;;;;;;;;;;;;;31.22;32.29;98149.56;5045931;28;20334;-85
2023/06/29 05:39:30;;;;;;;;;;;;;;;31.36;32.30;98148.84;5050070;28;20003;-85
2023/06/29 05:41:56;;;;;;;;;;;;;;;31.62;32.11;98154.06;5052505;28;19920;-85
2023/06/29 05:44:22;;;;;;;;;;;;;;;31.52;30.86;98158.22;5045671;28;19920;-86
2023/06/29 05:46:48;;;;;;;;;;;;;;;31.34;31.98;98161.94;5049391;28;20364;-86
2023/06/29 05:49:14;;;;;;;;;;;;;;;31.42;31.60;98161.13;5050403;28;19921;-87
2023/06/29 05:51:42;;;;;;;;;;;;;;;31.62;31.73;98171.88;5050860;28;19978;-86
2023/06/29 05:54:08;;;;;;;;;;;;;;;31.49;31.94;98165.63;5053238;28;19916;-87
2023/06/29 05:56:34;;;;;;;;;;;;;;;31.12;32.35;98167.88;5051666;28;19944;-86
2023/06/29 05:59:00;;;;;;;;;;;;;;;31.22;31.68;98172.25;5055954;28;20312;-87
2023/06/29 06:01:26;;;;;;;;;;;;;;;31.37;32.09;98167.41;5050022;28;19916;-86
2023/06/29 06:03:52;;;;;;;;;;;;;;;31.50;31.61;98164.38;5053501;28;19925;-87
2023/06/29 06:06:18;;;;;;;;;;;;;;;31.60;31.49;98160.19;5054800;28;19920;-86
2023/06/29 06:08:44;;;;;;;;;;;;;;;31.58;31.88;98168.41;5052640;28;20007;-87
2023/06/29 06:11:10;;;;;;;;;;;;;;;31.46;31.56;98171.50;5044744;28;20016;-86
2023/06/29 06:13:36;;;;;;;;;;;;;;;31.58;31.99;98170.50;5046575;28;19920;-86
2023/06/29 06:16:04;;;;;;;;;;;;;;;31.82;33.06;98165.56;5047679;28;19940;-86
2023/06/29 06:18:30;;;;;;;;;;;;;;;32.26;32.55;98169.31;5050194;28;19931;-86
2023/06/29 06:20:56;;;;;;;;;;;;;;;32.66;31.40;98166.72;5052273;28;19924;-87
2023/06/29 06:23:22;;;;;;;;;;;;;;;32.78;30.85;98167.69;5056615;28;19921;-87
2023/06/29 06:25:48;;;;;;;;;;;;;;;32.90;31.96;98168.66;5054739;28;20352;-87
2023/06/29 06:28:14;;;;;;;;;;;;;;;33.12;30.40;98174.72;5052980;28;19921;-86
2023/06/29 06:30:40;;;;;;;;;;;;;;;33.33;30.82;98173.47;5051428;28;19927;-87
2023/06/29 06:33:06;;;;;;;;;;;;;;;33.34;32.58;98164.47;5047829;28;19925;-87
2023/06/29 06:35:32;;;;;;;;;;;;;;;33.68;31.22;98173.50;5050204;28;20434;-87
2023/06/29 06:37:58;;;;;;;;;;;;;;;33.76;29.55;98168.94;5056237;28;19920;-86
2023/06/29 06:40:25;;;;;;;;;;;;;;;33.66;30.05;98176.03;5050951;28;19927;-88
2023/06/29 06:42:51;;;;;;;;;;;;;;;33.49;30.10;98163.63;5055048;28;19929;-88
2023/06/29 06:45:17;;;;;;;;;;;;;;;33.11;29.48;98158.94;5054468;28;19920;-87
2023/06/29 06:47:43;;;;;;;;;;;;;;;33.30;30.63;98163.09;5046613;28;19925;-87
2023/06/29 06:50:09;;;;;;;;;;;;;;;33.83;30.71;98169.28;5055898;28;19921;-88
2023/06/29 06:52:35;;;;;;;;;;;;;;;34.46;30.43;98166.66;5042728;28;19940;-88
2023/06/29 06:55:03;;;;;;;;;;;;;;;34.56;30.09;98159.53;5055098;28;19927;-88
2023/06/29 06:57:29;;;;;;;;;;;;;;;34.61;28.91;98162.41;5056507;28;19924;-90
2023/06/29 06:59:55;;;;;;;;;;;;;;;34.37;27.94;98161.91;5055565;28;20381;-89
2023/06/29 07:02:21;;;;;;;;;;;;;;;33.56;28.55;98160.38;5055253;28;20398;-90
2023/06/29 07:04:47;;;;;;;;;;;;;;;33.21;28.58;98154.69;5055087;28;20019;-88
2023/06/29 07:07:13;;;;;;;;;;;;;;;32.73;29.08;98163.47;5055600;28;19959;-89
2023/06/29 07:09:39;;;;;;;;;;;;;;;32.13;30.50;98153.81;5040770;28;20023;-89
2023/06/29 07:12:05;;;;;;;;;;;;;;;32.79;31.04;98159.94;5054784;28;19947;-89
2023/06/29 07:14:31;;;;;;;;;;;;;;;33.32;30.76;98158.50;5054246;28;20016;-89
2023/06/29 07:16:57;;;;;;;;;;;;;;;33.21;29.99;98166.84;5056027;28;19947;-90
2023/06/29 07:19:23;;;;;;;;;;;;;;;32.88;32.39;98160.63;5052624;28;20360;-90
2023/06/29 07:21:49;;;;;;;;;;;;;;;32.76;29.79;98161.72;5054966;28;20000;-90
2023/06/29 07:24:15;;;;;;;;;;;;;;;32.11;32.78;98159.22;5054924;28;19999;-88
2023/06/29 07:26:41;;;;;;;;;;;;;;;32.55;31.96;98171.44;5047670;28;20007;-90
2023/06/29 07:29:08;;;;;;;;;;;;;;;33.16;30.18;98164.72;5050664;28;19967;-90
2023/06/29 07:31:34;;;;;;;;;;;;;;;33.35;30.08;98170.94;5055626;28;19917;-90
2023/06/29 07:34:00;;;;;;;;;;;;;;;33.36;31.29;98170.44;5055302;28;19913;-89
2023/06/29 07:36:26;;;;;;;;;;;;;;;32.86;35.34;98170.94;5051361;28;19921;-90
2023/06/29 07:38:52;;;;;;;;;;;;;;;33.05;32.91;98161.69;5055386;28;20380;-90
2023/06/29 07:41:19;;;;;;;;;;;;;;;33.28;29.37;98162.81;5055476;28;19923;-91
2023/06/29 07:43:53;;;;;;;;;;;;;;;33.67;30.06;98169.06;5038616;28;19924;-89
2023/06/29 07:46:19;;;;;;;;;;;;;;;33.78;27.72;98167.16;5046059;28;19925;-89
2023/06/29 07:48:46;;;;;;;;;;;;;;;34.10;29.26;98170.16;5054946;28;20276;-89
2023/06/29 07:51:12;;;;;;;;;;;;;;;33.74;31.28;98166.59;5052998;28;20289;-90
2023/06/29 07:53:38;;;;;;;;;;;;;;;33.02;30.59;98176.13;5054796;28;19923;-88
2023/06/29 07:56:05;;;;;;;;;;;;;;;32.67;29.59;98176.81;5047276;28;20399;-89
2023/06/29 07:58:31;;;;;;;;;;;;;;;32.30;29.69;98174.81;5050897;28;19928;-87
2023/06/29 08:00:57;;;;;;;;;;;;;;;32.11;30.29;98174.19;5047481;28;19920;-88
2023/06/29 08:03:23;;;;;;;;;;;;;;;32.21;31.08;98178.50;5045245;28;19929;-89
2023/06/29 08:05:52;;;;;;;;;;;;;;;32.09;30.70;98180.34;5045334;28;20036;-91
2023/06/29 08:08:18;;;;;;;;;;;;;;;31.94;36.70;98176.69;5051519;28;20376;-90
2023/06/29 08:10:44;;;;;;;;;;;;;;;32.98;31.86;98178.38;5047422;28;19927;-88
2023/06/29 08:13:10;;;;;;;;;;;;;;;33.62;29.30;98169.78;5046236;28;19925;-89
2023/06/29 08:15:36;;;;;;;;;;;;;;;34.16;29.45;98165.28;5052730;28;20288;-88
2023/06/29 08:18:02;;;;;;;;;;;;;;;34.12;28.03;98161.88;5053232;28;19929;-88
2023/06/29 08:20:28;;;;;;;;;;;;;;;33.52;28.61;98165.47;5051755;28;20008;-90
2023/06/29 08:22:55;;;;;;;;;;;;;;;33.57;28.99;98164.78;5040998;28;19921;-90
2023/06/29 08:25:22;;;;;;;;;;;;;;;33.25;29.73;98167.44;5052001;28;20011;-89
2023/06/29 08:27:49;;;;;;;;;;;;;;;33.25;29.30;98173.13;5052301;28;19967;-91
2023/06/29 08:30:15;;;;;;;;;;;;;;;33.06;29.72;98173.84;5047764;28;19991;-89
2023/06/29 08:32:48;;;;;;;;;;;;;;;33.25;30.53;98173.13;5053324;28;19943;-90
2023/06/29 08:35:14;;;;;;;;;;;;;;;33.46;29.13;98164.63;5046613;28;19921;-88
2023/06/29 08:37:40;;;;;;;;;;;;;;;34.14;29.38;98167.88;5053535;28;19925;-90
2023/06/29 08:40:07;;;;;;;;;;;;;;;34.45;28.82;98165.09;5054678;28;20360;-88
2023/06/29 08:42:34;;;;;;;;;;;;;;;34.55;30.15;98173.00;5053726;28;19927;-88
2023/06/29 08:45:01;;;;;;;;;;;;;;;32.97;36.16;98165.41;5053399;28;19931;-89
2023/06/29 08:47:28;;;;;;;;;;;;;;;33.26;28.47;98169.00;5053939;28;19931;-90
2023/06/29 08:49:56;;;;;;;;;;;;;;;33.18;28.42;98169.91;5051768;28;20391;-88
2023/06/29 08:52:25;;;;;;;;;;;;;;;31.91;39.22;98176.84;5040319;28;19936;-87
2023/06/29 08:54:52;;;;;;;;;;;;;;;33.00;30.60;98176.56;5053346;28;19917;-90
2023/06/29 08:57:18;;;;;;;;;;;;;;;33.82;28.36;98164.88;5038459;28;19929;-89
2023/06/29 08:59:45;;;;;;;;;;;;;;;34.13;28.67;98164.22;5039061;28;19944;-91
2023/06/29 09:02:12;;;;;;;;;;;;;;;34.11;27.39;98166.00;5033918;28;19917;-89
2023/06/29 09:04:39;;;;;;;;;;;;;;;34.55;30.76;98167.28;5040938;28;19923;-90
2023/06/29 09:07:06;;;;;;;;;;;;;;;35.04;27.92;98168.25;5036955;28;20008;-88
2023/06/29 09:09:32;;;;;;;;;;;;;;;33.22;36.12;98176.16;5036385;28;19957;-88
2023/06/29 09:12:00;;;;;;;;;;;;;;;34.02;30.69;98166.94;5039189;28;20420;-89
2023/06/29 09:14:28;;;;;;;;;;;;;;;34.16;28.31;98166.09;5043909;28;19951;-88
2023/06/29 09:17:01;;;;;;;;;;;;;;;34.11;28.21;98166.00;5053738;28;19917;-89
2023/06/29 09:19:31;;;;;;;;;;;;;;;33.43;29.51;98163.53;5052433;28;19974;-88
2023/06/29 09:21:59;;;;;;;;;;;;;;;34.21;26.93;98171.06;5046147;28;20059;-86
2023/06/29 09:24:27;;;;;;;;;;;;;;;34.85;27.42;98164.16;5042537;28;19978;-86
2023/06/29 09:26:54;;;;;;;;;;;;;;;34.97;27.13;98158.06;5047802;28;19916;-88
2023/06/29 09:29:20;;;;;;;;;;;;;;;34.85;27.48;98167.81;5052483;28;19920;-87
2023/06/29 09:31:56;;;;;;;;;;;;;;;34.59;26.78;98164.19;5053345;28;20611;-87
2023/06/29 09:34:22;;;;;;;;;;;;;;;34.32;26.26;98171.19;5057235;28;19921;-88
2023/06/29 09:36:48;;;;;;;;;;;;;;;34.24;26.66;98160.72;5056816;28;19921;-86
2023/06/29 09:39:15;;;;;;;;;;;;;;;34.37;27.48;98161.13;5056171;28;20004;-87
2023/06/29 09:41:47;;;;;;;;;;;;;;;34.36;31.80;98177.44;5051883;28;19921;-87
2023/06/29 09:44:16;;;;;;;;;;;;;;;33.28;28.92;98174.97;5056977;28;19921;-86
2023/06/29 09:46:42;;;;;;;;;;;;;;;33.21;30.74;98174.63;5057581;28;19925;-85
2023/06/29 09:49:09;;;;;;;;;;;;;;;33.28;32.41;98172.13;5057183;28;19924;-86
2023/06/29 09:51:35;;;;;;;;;;;;;;;33.57;30.80;98170.50;5057352;28;20011;-87
2023/06/29 09:54:02;;;;;;;;;;;;;;;33.50;28.48;98170.88;5057092;28;20371;-88
2023/06/29 09:56:29;;;;;;;;;;;;;;;33.60;28.98;98167.44;5057038;28;20008;-87
2023/06/29 09:58:56;;;;;;;;;;;;;;;34.23;28.98;98167.72;5046673;28;19917;-86
2023/06/29 10:01:26;;;;;;;;;;;;;;;32.80;32.57;98165.13;5051101;28;19923;-86
2023/06/29 10:03:52;;;;;;;;;;;;;;;32.91;29.43;98165.31;5058146;28;19921;-87
2023/06/29 10:06:19;;;;;;;;;;;;;;;33.80;30.04;98167.44;5057049;28;20007;-87
2023/06/29 10:08:48;;;;;;;;;;;;;;;33.50;28.08;98163.13;5056377;28;20376;-86
2023/06/29 10:11:14;;;;;;;;;;;;;;;33.52;28.07;98166.25;5053374;28;20011;-87
2023/06/29 10:13:42;;;;;;;;;;;;;;;33.39;28.78;98166.63;5056139;28;19958;-87
2023/06/29 10:16:10;;;;;;;;;;;;;;;34.23;28.84;98157.09;5044656;28;19979;-87
2023/06/29 10:18:39;;;;;;;;;;;;;;;34.94;28.60;98155.44;5040896;28;19924;-87
2023/06/29 10:21:05;;;;;;;;;;;;;;;34.65;28.54;98154.44;5057001;28;19921;-87
2023/06/29 10:23:32;;;;;;;;;;;;;;;34.14;28.47;98153.63;5056318;28;19917;-86
2023/06/29 10:26:00;;;;;;;;;;;;;;;33.90;28.34;98146.06;5056358;28;19931;-87
2023/06/29 10:28:26;;;;;;;;;;;;;;;34.33;30.46;98149.91;5052650;28;19929;-87
2023/06/29 10:30:57;;;;;;;;;;;;;;;34.17;28.84;98152.63;5041712;28;19939;-87
2023/06/29 10:33:23;;;;;;;;;;;;;;;34.41;30.53;98147.41;5050098;28;19939;-88
2023/06/29 10:36:02;;;;;;;;;;;;;;;34.93;32.79;98148.16;5054148;28;19922;-86
2023/06/29 10:38:34;;;;;;;;;;;;;;;34.66;27.11;98153.13;5049967;28;19921;-85
2023/06/29 10:41:01;;;;;;;;;;;;;;;35.77;27.83;98144.56;5050363;28;19933;-87
2023/06/29 10:43:27;;;;;;;;;;;;;;;35.58;26.32;98146.28;5051599;28;19927;-88
2023/06/29 10:45:53;;;;;;;;;;;;;;;35.70;26.01;98137.28;5056030;28;20443;-87
2023/06/29 10:48:19;;;;;;;;;;;;;;;36.33;25.61;98134.09;5056037;28;19917;-86
2023/06/29 10:50:47;;;;;;;;;;;;;;;37.01;26.70;98133.66;5040647;28;20343;-88
2023/06/29 10:53:14;;;;;;;;;;;;;;;36.75;24.24;98136.78;5046758;28;19986;-92
2023/06/29 10:55:54;;;;;;;;;;;;;;;36.01;27.19;98140.00;5056825;28;20411;-93
2023/06/29 10:58:28;;;;;;;;;;;;;;;36.28;27.26;98132.81;5054921;28;19975;-90
2023/06/29 11:00:55;;;;;;;;;;;;;;;36.57;25.40;98129.47;5060735;28;19924;-96
2023/06/29 11:03:22;;;;;;;;;;;;;;;36.28;25.58;98134.88;5058824;28;19921;-92
2023/06/29 11:05:49;;;;;;;;;;;;;;;35.92;26.24;98134.47;5055511;28;19928;-93
2023/06/29 11:08:15;;;;;;;;;;;;;;;35.60;27.00;98135.13;5057867;28;19929;-92
2023/06/29 11:10:41;;;;;;;;;;;;;;;36.10;27.89;98132.50;5060841;28;19921;-95
2023/06/29 11:13:08;;;;;;;;;;;;;;;36.00;30.92;98132.72;5061924;28;19928;-94
2023/06/29 11:15:34;;;;;;;;;;;;;;;35.05;29.11;98141.28;5056839;28;19928;-91
2023/06/29 11:18:04;;;;;;;;;;;;;;;34.89;25.17;98139.06;5057501;28;19939;-92
2023/06/29 11:20:31;;;;;;;;;;;;;;;33.51;35.27;98129.75;5055743;28;19921;-91
2023/06/29 11:22:57;;;;;;;;;;;;;;;34.13;27.20;98129.22;5054460;28;19963;-88
2023/06/29 11:25:25;;;;;;;;;;;;;;;33.38;32.84;98128.03;5055399;28;19931;-87
2023/06/29 11:27:51;;;;;;;;;;;;;;;34.59;25.87;98122.19;5044519;28;20327;-89
2023/06/29 11:30:19;;;;;;;;;;;;;;;35.29;25.88;98121.69;5046277;28;19963;-91
2023/06/29 11:32:47;;;;;;;;;;;;;;;36.17;24.29;98112.78;5049146;28;19952;-91
2023/06/29 11:35:13;;;;;;;;;;;;;;;36.46;24.21;98114.38;5051181;28;19925;-88
2023/06/29 11:37:40;;;;;;;;;;;;;;;37.12;23.86;98119.34;5053913;28;19925;-91
2023/06/29 11:40:18;;;;;;;;;;;;;;;36.82;24.06;98115.44;5052633;28;20511;-90
2023/06/29 11:42:44;;;;;;;;;;;;;;;36.63;23.61;98115.97;5035680;28;19940;-91
2023/06/29 11:45:12;;;;;;;;;;;;;;;36.80;25.60;98118.84;5040280;28;20015;-90
2023/06/29 11:47:38;;;;;;;;;;;;;;;37.17;23.19;98112.81;5042131;28;19933;-93
2023/06/29 11:50:07;;;;;;;;;;;;;;;37.41;24.73;98115.13;5055113;28;19932;-90
2023/06/29 11:52:34;;;;;;;;;;;;;;;37.52;23.02;98115.09;5053452;28;20020;-90
2023/06/29 11:55:00;;;;;;;;;;;;;;;37.17;26.97;98105.00;5048980;28;20008;-90
2023/06/29 11:57:30;;;;;;;;;;;;;;;37.18;23.38;98105.81;5054162;28;19917;-88
2023/06/29 11:59:56;;;;;;;;;;;;;;;37.61;22.59;98101.25;5037415;28;20377;-90
2023/06/29 12:02:22;;;;;;;;;;;;;;;37.90;25.34;98094.13;5039119;28;19921;-90
2023/06/29 12:04:56;;;;;;;;;;;;;;;37.17;24.48;98092.78;5035334;28;19917;-90
2023/06/29 12:07:34;;;;;;;;;;;;;;;37.35;22.95;98084.38;5035136;28;19917;-88
2023/06/29 12:10:01;;;;;;;;;;;;;;;36.73;23.39;98076.44;5040701;28;19976;-90
2023/06/29 12:12:27;;;;;;;;;;;;;;;36.78;25.09;98084.22;5051953;28;19924;-91
2023/06/29 12:14:53;;;;;;;;;;;;;;;37.12;23.49;98085.75;5046126;28;20425;-89
2023/06/29 12:17:19;;;;;;;;;;;;;;;37.09;21.61;98078.19;5051326;28;19920;-90
2023/06/29 12:19:50;;;;;;;;;;;;;;;36.50;24.97;98074.88;5054435;28;19916;-92
2023/06/29 12:22:16;;;;;;;;;;;;;;;36.40;23.44;98073.53;5054925;28;20004;-90
2023/06/29 12:24:48;;;;;;;;;;;;;;;35.80;24.79;98069.25;5054630;28;20370;-91
2023/06/29 12:27:14;;;;;;;;;;;;;;;36.16;31.20;98074.03;5054450;28;20372;-91
2023/06/29 12:29:40;;;;;;;;;;;;;;;36.71;23.83;98067.59;5054039;28;19920;-91
2023/06/29 12:32:06;;;;;;;;;;;;;;;36.84;22.37;98061.31;5043329;28;19964;-90
2023/06/29 12:34:32;;;;;;;;;;;;;;;36.41;24.76;98061.56;5035988;28;20324;-88
2023/06/29 12:36:58;;;;;;;;;;;;;;;35.95;30.14;98064.88;5052377;28;19947;-88
2023/06/29 12:39:24;;;;;;;;;;;;;;;35.15;32.97;98066.34;5052946;28;20393;-88
2023/06/29 12:41:50;;;;;;;;;;;;;;;35.61;29.72;98060.38;5048358;28;19928;-87
2023/06/29 12:44:16;;;;;;;;;;;;;;;36.31;26.69;98057.41;5044722;28;20074;-89
2023/06/29 12:46:42;;;;;;;;;;;;;;;36.56;23.30;98056.41;5046953;28;20020;-89